Map

Track Data

SID SEASON NUMBER BASIN SUBBASIN NAME ISO_TIME NATURE LAT LON WMO_WIND WMO_PRES WMO_AGENCY TRACK_TYPE DIST2LAND LANDFALL IFLAG USA_AGENCY USA_ATCF_ID USA_LAT USA_LON USA_RECORD USA_STATUS USA_WIND USA_PRES USA_SSHS USA_R34_NE USA_R34_SE USA_R34_SW USA_R34_NW USA_R50_NE USA_R50_SE USA_R50_SW USA_R50_NW USA_R64_NE USA_R64_SE USA_R64_SW USA_R64_NW USA_POCI USA_ROCI USA_RMW USA_EYE TOKYO_LAT TOKYO_LON TOKYO_GRADE TOKYO_WIND TOKYO_PRES TOKYO_R50_DIR TOKYO_R50_LONG TOKYO_R50_SHORT TOKYO_R30_DIR TOKYO_R30_LONG TOKYO_R30_SHORT TOKYO_LAND CMA_LAT CMA_LON CMA_CAT CMA_WIND CMA_PRES HKO_LAT HKO_LON HKO_CAT HKO_WIND HKO_PRES NEWDELHI_LAT NEWDELHI_LON NEWDELHI_GRADE NEWDELHI_WIND NEWDELHI_PRES NEWDELHI_CI NEWDELHI_DP NEWDELHI_POCI REUNION_LAT REUNION_LON REUNION_TYPE REUNION_WIND REUNION_PRES REUNION_TNUM REUNION_CI REUNION_RMW REUNION_R34_NE REUNION_R34_SE REUNION_R34_SW REUNION_R34_NW REUNION_R50_NE REUNION_R50_SE REUNION_R50_SW REUNION_R50_NW REUNION_R64_NE REUNION_R64_SE REUNION_R64_SW REUNION_R64_NW BOM_LAT BOM_LON BOM_TYPE BOM_WIND BOM_PRES BOM_TNUM BOM_CI BOM_RMW BOM_R34_NE BOM_R34_SE BOM_R34_SW BOM_R34_NW BOM_R50_NE BOM_R50_SE BOM_R50_SW BOM_R50_NW BOM_R64_NE BOM_R64_SE BOM_R64_SW BOM_R64_NW BOM_ROCI BOM_POCI BOM_EYE BOM_POS_METHOD BOM_PRES_METHOD NADI_LAT NADI_LON NADI_CAT NADI_WIND NADI_PRES WELLINGTON_LAT WELLINGTON_LON WELLINGTON_WIND WELLINGTON_PRES DS824_LAT DS824_LON DS824_STAGE DS824_WIND DS824_PRES TD9636_LAT TD9636_LON TD9636_STAGE TD9636_WIND TD9636_PRES TD9635_LAT TD9635_LON TD9635_WIND TD9635_PRES TD9635_ROCI NEUMANN_LAT NEUMANN_LON NEUMANN_CLASS NEUMANN_WIND NEUMANN_PRES MLC_LAT MLC_LON MLC_CLASS MLC_WIND MLC_PRES USA_GUST BOM_GUST BOM_GUST_PER REUNION_GUST REUNION_GUST_PER USA_SEAHGT USA_SEARAD_NE USA_SEARAD_SE USA_SEARAD_SW USA_SEARAD_NW STORM_SPEED STORM_DIR
2021270N29301 2021 81 NA NA PETER 2021-09-27 00:00:00 NR 29.0000 -59.5000 PROVISIONAL 1336 1336 O_____________ tcvitals AL162021 29.0000 -59.5000 25 1009 -1 1011 120 70 8 10
2021270N29301 2021 81 NA NA PETER 2021-09-27 03:00:00 NR 29.4049 -59.4167 PROVISIONAL 1380 1380 P_____________ AL162021 29.4848 -59.4267 -5 8 9
2021270N29301 2021 81 NA NA PETER 2021-09-27 06:00:00 NR 29.8207 -59.3435 PROVISIONAL 1424 1424 P_____________ AL162021 29.9617 -59.3528 -5 8 8
2021270N29301 2021 81 NA NA PETER 2021-09-27 09:00:00 NR 30.2414 -59.2766 PROVISIONAL 1464 1464 P_____________ AL162021 30.4225 -59.2782 -5 9 8
2021270N29301 2021 81 NA NA PETER 2021-09-27 12:00:00 NR 30.6606 -59.2121 PROVISIONAL 1518 1491 P_____________ AL162021 30.8590 -59.2031 -5 8 8
2021270N29301 2021 81 NA NA PETER 2021-09-27 15:00:00 NR 31.0723 -59.1462 PROVISIONAL 1484 1452 P_____________ AL162021 31.2631 -59.1276 -5 8 8
2021270N29301 2021 81 NA NA PETER 2021-09-27 18:00:00 NR 31.4702 -59.0748 PROVISIONAL 1442 1414 P_____________ AL162021 31.6267 -59.0517 -5 8 10
2021270N29301 2021 81 NA NA PETER 2021-09-27 21:00:00 NR 31.8482 -58.9941 PROVISIONAL 1414 1376 P_____________ AL162021 31.9417 -58.9758 -5 7 11
2021270N29301 2021 81 NA NA PETER 2021-09-28 00:00:00 NR 32.2000 -58.9000 PROVISIONAL 1376 1359 O_____________ tcvitals AL162021 32.2000 -58.9000 29 1010 -1 1014 110 40 6 14
2021270N29301 2021 81 NA NA PETER 2021-09-28 03:00:00 NR 32.3994 -58.8233 PROVISIONAL 1359 1342 P_____________ AL162021 32.3994 -58.8233 -5 4 21
2021270N29301 2021 81 NA NA PETER 2021-09-28 06:00:00 NR 32.5604 -58.7402 PROVISIONAL 1342 1332 P_____________ AL162021 32.5604 -58.7402 -5 3 27
2021270N29301 2021 81 NA NA PETER 2021-09-28 09:00:00 NR 32.7097 -58.6435 PROVISIONAL 1336 1319 P_____________ AL162021 32.7097 -58.6435 -5 4 30
2021270N29301 2021 81 NA NA PETER 2021-09-28 12:00:00 NR 32.8734 -58.5263 PROVISIONAL 1319 1303 P_____________ AL162021 32.8734 -58.5263 -5 4 31
2021270N29301 2021 81 NA NA PETER 2021-09-28 15:00:00 NR 33.0780 -58.3813 PROVISIONAL 1303 1287 P_____________ AL162021 33.0780 -58.3813 -5 6 30
2021270N29301 2021 81 NA NA PETER 2021-09-28 18:00:00 NR 33.3498 -58.2007 PROVISIONAL 1291 1259 P_____________ AL162021 33.3498 -58.2007 -5 7 28
2021270N29301 2021 81 NA NA PETER 2021-09-28 21:00:00 NR 33.7151 -57.9766 PROVISIONAL 1259 1224 P_____________ AL162021 33.7151 -57.9766 -5 9 26
2021270N29301 2021 81 NA NA PETER 2021-09-29 00:00:00 NR 34.2000 -57.7000 PROVISIONAL 1224 1181 O_____________ tcvitals AL162021 34.2000 -57.7000 29 1011 -1 1015 110 30 12 23
2021270N29301 2021 81 NA NA PETER 2021-09-29 03:00:00 NR 34.8097 -57.4009 PROVISIONAL 1181 1133 P_____________ AL162021 34.8097 -57.4009 27 1011 -1 1015 105 30 14 24
2021270N29301 2021 81 NA NA PETER 2021-09-29 06:00:00 NR 35.5000 -57.0000 PROVISIONAL 1133 1072 O_____________ tcvitals AL162021 35.5000 -57.0000 25 1011 -1 1015 100 30 16 28
2021270N29301 2021 81 NA NA PETER 2021-09-29 09:00:00 NR 36.2398 -56.4550 PROVISIONAL 1072 1013 P_____________ AL162021 36.2398 -56.4550 26 1011 -1 18 33
2021270N29301 2021 81 NA NA PETER 2021-09-29 12:00:00 NR 37.0119 -55.7835 PROVISIONAL 1013 961 P_____________ AL162021 37.0119 -55.7835 27 1011 -1 19 36
2021270N29301 2021 81 NA NA PETER 2021-09-29 15:00:00 NR 37.8030 -55.0198 PROVISIONAL 965 890 P_____________ AL162021 37.8030 -55.0198 28 1011 -1 20 38
2021270N29301 2021 81 NA NA PETER 2021-09-29 18:00:00 NR 38.6000 -54.2000 PROVISIONAL 890 O_____________ tcvitals AL162021 38.6000 -54.2000 29 1011 -1 1015 100 35 20 39

About IBTrACS Database

This database is a web-friendly format of International Best Track Archive for Climate Stewardship (IBTrACS), a global best track data archive curated by NOAA dating back to 1842.

Updated: 2022-05-24